Terminal Aerodrome Forecast
Issued by NWS Wilmington, OH

Current Version | Previous Version | Graphics & Text | Print | Product List | Glossary On
Versions: 1 2 3 4 5 6 7 8 9 10 11 12 13 14 15 16 17 18 19 20 21 22
000
FTUS41 KILN 281730
TAFCVG
TAF
KCVG 281730Z 2818/2924 36011KT P6SM OVC015
     FM282300 36006KT P6SM OVC022
     FM290400 02006KT P6SM OVC018
     FM291600 05006KT P6SM BKN022
     FM291700 06009KT P6SM BKN035
     FM292100 06010KT P6SM SCT060=

USA.gov is the U.S. government's official web portal to all federal, state and local government web resources and services.